Nur fliegen ist schöner ....

Willkommen beim Flugservice Bautzen GmbH

Wir sind eine nach europäischen Richtlinien zugelassene Flugschule und lizenziertes Luftfahrtunternehmen. Bei uns können sie nicht nur Rundflüge über die Oberlausitz oder Sachsen buchen, sondern in unserer Flugschule selber das Fliegen erlernen. Erfahrene Fluglehrer stehen Ihnen dabei zur Seite.

Wir bieten Ihnen außerdem spezielle Flüge zur Vermessung oder Fotoflüge für Luftbildaufnahmen an. In Zusammenarbeit mit dem Fallschirmsportclub Dresden und dem Cottbuser Fallschirmsportclub setzen wir am Flugplatz Bautzen und Neuhausen Fallschirmspringer ab.
Schauen Sie sich in Ruhe bei uns um und wenn Sie Fragen haben oder weitere Informationen benötigen, scheuen Sie sich nicht Kontakt mit uns aufzunehmen.

Gutscheine für Rundflüge und Tandemsprünge können Sie ganz leicht auch online in unserem Shop erwerben.

Terminkalender

Letzter Monat Januar 2021 Nächster Monat
Mo Di Mi Do Fr Sa So
week 53 1 2 3
week 1 4 5 6 7 8 9 10
week 2 11 12 13 14 15 16 17
week 3 18 19 20 21 22 23 24
week 4 25 26 27 28 29 30 31

Flugwetterinfo

[Quelle: ADDS]
METAR
EDDC 172120Z 17004KT CAVOK M08/M09 Q1021 =
EDDC 171700Z 1718/1818 VRB03KT 9999 BKN030 BECMG 1800/1804 17005KT BECMG 1806/1809 25007KT 4000 -SN BKN008 TEMPO 1807/1815 2000 -SN BKN004 TEMPO 1815/1818 2000 -RASN BKN004
TAF
EDDC 171700Z 1718/1818 VRB03KT 9999 BKN030 BECMG 1800/1804 17005KT BECMG 1806/1809 25007KT 4000 -SN BKN008 TEMPO 1807/1815 2000 -SN BKN004 TEMPO 1815/1818 2000 -RASN BKN004 =
SR / SS: 06:57 / 15:26 UTC (EDAB Flugplatz Bautzen 2021-01-17)

Öffnungszeiten

des Flugplatzes Bautzen erfahren Sie hier:

flugplatz bautzen logo
Flugservice Bautzen GmbH, Kornmarkt 34, 02625 Bautzen  Telefon: +49 (3591) 211105, Telefax: +49 (3591) 274512, E-Mail:  flugservice(at)fsbautzen.de